sensor_id;sensor_type;location;lat;lon;timestamp;P1;durP1;ratioP1;P2;durP2;ratioP2
2462;SDS011;1243;54.298;10.172;2023-04-25T00:02:21;9.23;;;4.60;;
2462;SDS011;1243;54.298;10.172;2023-04-25T00:04:47;6.87;;;4.20;;
2462;SDS011;1243;54.298;10.172;2023-04-25T00:07:14;5.87;;;3.53;;
2462;SDS011;1243;54.298;10.172;2023-04-25T00:09:41;17.97;;;4.30;;
2462;SDS011;1243;54.298;10.172;2023-04-25T00:12:06;12.73;;;4.30;;
2462;SDS011;1243;54.298;10.172;2023-04-25T00:14:32;13.37;;;4.23;;
2462;SDS011;1243;54.298;10.172;2023-04-25T00:17:01;8.03;;;3.77;;
2462;SDS011;1243;54.298;10.172;2023-04-25T00:19:27;15.63;;;4.77;;
2462;SDS011;1243;54.298;10.172;2023-04-25T00:21:56;15.33;;;3.47;;
2462;SDS011;1243;54.298;10.172;2023-04-25T00:24:22;14.23;;;4.07;;
2462;SDS011;1243;54.298;10.172;2023-04-25T00:26:48;7.80;;;4.07;;
2462;SDS011;1243;54.298;10.172;2023-04-25T00:29:13;6.50;;;3.20;;
2462;SDS011;1243;54.298;10.172;2023-04-25T00:31:40;11.97;;;5.30;;
2462;SDS011;1243;54.298;10.172;2023-04-25T00:34:06;9.40;;;3.83;;
2462;SDS011;1243;54.298;10.172;2023-04-25T00:36:32;12.70;;;4.47;;
2462;SDS011;1243;54.298;10.172;2023-04-25T00:38:57;13.50;;;5.90;;
2462;SDS011;1243;54.298;10.172;2023-04-25T00:41:23;12.63;;;4.23;;
2462;SDS011;1243;54.298;10.172;2023-04-25T00:43:51;10.37;;;4.40;;
2462;SDS011;1243;54.298;10.172;2023-04-25T00:46:18;9.13;;;3.50;;
2462;SDS011;1243;54.298;10.172;2023-04-25T00:48:44;11.17;;;4.60;;
2462;SDS011;1243;54.298;10.172;2023-04-25T00:51:11;15.50;;;4.50;;
2462;SDS011;1243;54.298;10.172;2023-04-25T00:53:41;11.60;;;4.43;;
2462;SDS011;1243;54.298;10.172;2023-04-25T00:56:07;23.87;;;5.83;;
2462;SDS011;1243;54.298;10.172;2023-04-25T00:58:33;19.67;;;5.60;;
2462;SDS011;1243;54.298;10.172;2023-04-25T01:00:59;12.90;;;4.80;;
2462;SDS011;1243;54.298;10.172;2023-04-25T01:03:26;11.70;;;5.60;;
2462;SDS011;1243;54.298;10.172;2023-04-25T01:05:53;19.23;;;5.50;;
2462;SDS011;1243;54.298;10.172;2023-04-25T01:08:19;9.77;;;5.20;;
2462;SDS011;1243;54.298;10.172;2023-04-25T01:10:48;15.17;;;5.60;;
2462;SDS011;1243;54.298;10.172;2023-04-25T01:13:14;12.03;;;5.17;;
2462;SDS011;1243;54.298;10.172;2023-04-25T01:15:39;9.47;;;5.37;;
2462;SDS011;1243;54.298;10.172;2023-04-25T01:18:05;16.50;;;5.43;;
2462;SDS011;1243;54.298;10.172;2023-04-25T01:20:32;7.30;;;4.33;;
2462;SDS011;1243;54.298;10.172;2023-04-25T01:22:59;16.40;;;5.03;;
2462;SDS011;1243;54.298;10.172;2023-04-25T01:25:25;18.17;;;6.90;;
2462;SDS011;1243;54.298;10.172;2023-04-25T01:27:51;18.63;;;5.13;;
2462;SDS011;1243;54.298;10.172;2023-04-25T01:33:39;14.10;;;4.50;;
2462;SDS011;1243;54.298;10.172;2023-04-25T01:36:05;17.37;;;4.53;;
2462;SDS011;1243;54.298;10.172;2023-04-25T01:38:31;13.30;;;4.60;;
2462;SDS011;1243;54.298;10.172;2023-04-25T01:40:57;7.90;;;4.13;;
2462;SDS011;1243;54.298;10.172;2023-04-25T01:43:23;7.70;;;4.37;;
2462;SDS011;1243;54.298;10.172;2023-04-25T01:45:49;10.93;;;4.70;;
2462;SDS011;1243;54.298;10.172;2023-04-25T01:48:15;13.60;;;4.33;;
2462;SDS011;1243;54.298;10.172;2023-04-25T01:50:41;4.27;;;3.47;;
2462;SDS011;1243;54.298;10.172;2023-04-25T01:53:07;14.43;;;4.80;;
2462;SDS011;1243;54.298;10.172;2023-04-25T01:55:35;13.40;;;4.70;;
2462;SDS011;1243;54.298;10.172;2023-04-25T01:58:02;7.70;;;5.07;;
2462;SDS011;1243;54.298;10.172;2023-04-25T02:00:28;13.67;;;4.50;;
2462;SDS011;1243;54.298;10.172;2023-04-25T02:02:57;6.73;;;3.47;;
2462;SDS011;1243;54.298;10.172;2023-04-25T02:05:23;14.03;;;4.10;;
2462;SDS011;1243;54.298;10.172;2023-04-25T02:07:49;9.27;;;4.57;;
2462;SDS011;1243;54.298;10.172;2023-04-25T02:13:36;6.93;;;3.87;;
2462;SDS011;1243;54.298;10.172;2023-04-25T02:16:02;11.43;;;4.10;;
2462;SDS011;1243;54.298;10.172;2023-04-25T02:18:27;11.50;;;4.00;;
2462;SDS011;1243;54.298;10.172;2023-04-25T02:20:53;12.43;;;4.70;;
2462;SDS011;1243;54.298;10.172;2023-04-25T02:23:19;24.10;;;5.70;;
2462;SDS011;1243;54.298;10.172;2023-04-25T02:25:45;19.57;;;5.37;;
2462;SDS011;1243;54.298;10.172;2023-04-25T02:28:11;7.13;;;4.50;;
2462;SDS011;1243;54.298;10.172;2023-04-25T02:30:36;11.87;;;5.27;;
2462;SDS011;1243;54.298;10.172;2023-04-25T02:33:02;23.73;;;5.00;;
2462;SDS011;1243;54.298;10.172;2023-04-25T02:35:28;10.50;;;4.93;;
2462;SDS011;1243;54.298;10.172;2023-04-25T02:37:53;13.70;;;5.33;;
2462;SDS011;1243;54.298;10.172;2023-04-25T02:40:19;16.00;;;5.13;;
2462;SDS011;1243;54.298;10.172;2023-04-25T02:42:45;12.80;;;4.70;;
2462;SDS011;1243;54.298;10.172;2023-04-25T02:45:11;20.77;;;6.00;;
2462;SDS011;1243;54.298;10.172;2023-04-25T02:47:36;13.30;;;6.10;;
2462;SDS011;1243;54.298;10.172;2023-04-25T02:50:02;7.67;;;4.00;;
2462;SDS011;1243;54.298;10.172;2023-04-25T02:52:29;13.90;;;4.33;;
2462;SDS011;1243;54.298;10.172;2023-04-25T02:54:55;15.97;;;4.57;;
2462;SDS011;1243;54.298;10.172;2023-04-25T02:57:20;17.60;;;4.27;;
2462;SDS011;1243;54.298;10.172;2023-04-25T02:59:46;9.00;;;4.87;;
2462;SDS011;1243;54.298;10.172;2023-04-25T03:02:12;11.07;;;4.30;;
2462;SDS011;1243;54.298;10.172;2023-04-25T03:04:37;9.90;;;4.97;;
2462;SDS011;1243;54.298;10.172;2023-04-25T03:07:03;7.50;;;4.07;;
2462;SDS011;1243;54.298;10.172;2023-04-25T03:09:29;11.00;;;4.73;;
2462;SDS011;1243;54.298;10.172;2023-04-25T03:12:00;12.33;;;4.17;;
2462;SDS011;1243;54.298;10.172;2023-04-25T03:18:51;13.23;;;4.83;;
2462;SDS011;1243;54.298;10.172;2023-04-25T03:29:28;15.17;;;5.03;;
2462;SDS011;1243;54.298;10.172;2023-04-25T03:40:01;11.60;;;5.00;;
2462;SDS011;1243;54.298;10.172;2023-04-25T03:46:51;12.10;;;5.40;;
2462;SDS011;1243;54.298;10.172;2023-04-25T03:49:16;9.63;;;4.83;;
2462;SDS011;1243;54.298;10.172;2023-04-25T03:51:42;13.33;;;3.87;;
2462;SDS011;1243;54.298;10.172;2023-04-25T03:54:08;11.30;;;4.90;;
2462;SDS011;1243;54.298;10.172;2023-04-25T03:56:33;15.27;;;4.97;;
2462;SDS011;1243;54.298;10.172;2023-04-25T03:58:59;19.20;;;4.70;;
2462;SDS011;1243;54.298;10.172;2023-04-25T04:01:25;14.87;;;4.30;;
2462;SDS011;1243;54.298;10.172;2023-04-25T04:03:51;10.77;;;4.80;;
2462;SDS011;1243;54.298;10.172;2023-04-25T04:06:16;17.27;;;5.77;;
2462;SDS011;1243;54.298;10.172;2023-04-25T04:08:42;10.50;;;4.50;;
2462;SDS011;1243;54.298;10.172;2023-04-25T04:11:08;20.23;;;5.10;;
2462;SDS011;1243;54.298;10.172;2023-04-25T04:13:34;15.57;;;4.90;;
2462;SDS011;1243;54.298;10.172;2023-04-25T04:16:00;10.63;;;4.90;;
2462;SDS011;1243;54.298;10.172;2023-04-25T04:18:28;14.00;;;4.90;;
2462;SDS011;1243;54.298;10.172;2023-04-25T04:20:53;19.03;;;6.10;;
2462;SDS011;1243;54.298;10.172;2023-04-25T04:23:19;8.93;;;4.80;;
2462;SDS011;1243;54.298;10.172;2023-04-25T04:25:45;10.23;;;4.30;;
2462;SDS011;1243;54.298;10.172;2023-04-25T04:28:11;5.33;;;3.80;;
2462;SDS011;1243;54.298;10.172;2023-04-25T04:30:38;10.90;;;4.77;;
2462;SDS011;1243;54.298;10.172;2023-04-25T04:33:04;6.53;;;3.60;;
2462;SDS011;1243;54.298;10.172;2023-04-25T04:35:32;14.47;;;4.80;;
2462;SDS011;1243;54.298;10.172;2023-04-25T04:37:58;13.80;;;4.67;;
2462;SDS011;1243;54.298;10.172;2023-04-25T04:40:24;8.53;;;3.40;;
2462;SDS011;1243;54.298;10.172;2023-04-25T04:42:50;10.90;;;4.20;;
2462;SDS011;1243;54.298;10.172;2023-04-25T04:45:16;13.13;;;5.30;;
2462;SDS011;1243;54.298;10.172;2023-04-25T04:47:43;13.20;;;4.20;;
2462;SDS011;1243;54.298;10.172;2023-04-25T04:50:11;6.20;;;3.97;;
2462;SDS011;1243;54.298;10.172;2023-04-25T04:52:37;7.27;;;3.27;;
2462;SDS011;1243;54.298;10.172;2023-04-25T04:55:03;17.53;;;4.30;;
2462;SDS011;1243;54.298;10.172;2023-04-25T04:57:30;14.73;;;4.50;;
2462;SDS011;1243;54.298;10.172;2023-04-25T04:59:57;21.07;;;4.20;;
2462;SDS011;1243;54.298;10.172;2023-04-25T05:02:23;13.07;;;4.00;;
2462;SDS011;1243;54.298;10.172;2023-04-25T05:04:49;8.17;;;4.37;;
2462;SDS011;1243;54.298;10.172;2023-04-25T05:07:16;15.00;;;4.47;;
2462;SDS011;1243;54.298;10.172;2023-04-25T05:09:42;12.27;;;4.37;;
2462;SDS011;1243;54.298;10.172;2023-04-25T05:12:08;8.33;;;3.70;;
2462;SDS011;1243;54.298;10.172;2023-04-25T05:14:33;8.00;;;4.20;;
2462;SDS011;1243;54.298;10.172;2023-04-25T05:16:59;10.27;;;3.87;;
2462;SDS011;1243;54.298;10.172;2023-04-25T05:19:25;9.47;;;3.57;;
2462;SDS011;1243;54.298;10.172;2023-04-25T05:21:51;12.70;;;4.17;;
2462;SDS011;1243;54.298;10.172;2023-04-25T05:24:17;16.20;;;4.90;;
2462;SDS011;1243;54.298;10.172;2023-04-25T05:26:43;11.77;;;3.30;;
2462;SDS011;1243;54.298;10.172;2023-04-25T05:29:08;12.83;;;3.90;;
2462;SDS011;1243;54.298;10.172;2023-04-25T05:31:35;11.40;;;3.40;;
2462;SDS011;1243;54.298;10.172;2023-04-25T05:34:01;16.03;;;3.90;;
2462;SDS011;1243;54.298;10.172;2023-04-25T05:36:27;11.20;;;4.00;;
2462;SDS011;1243;54.298;10.172;2023-04-25T05:38:53;8.33;;;4.27;;
2462;SDS011;1243;54.298;10.172;2023-04-25T05:41:19;7.60;;;3.93;;
2462;SDS011;1243;54.298;10.172;2023-04-25T05:43:45;21.27;;;4.57;;
2462;SDS011;1243;54.298;10.172;2023-04-25T05:46:12;20.43;;;4.43;;
2462;SDS011;1243;54.298;10.172;2023-04-25T05:48:38;9.63;;;3.90;;
2462;SDS011;1243;54.298;10.172;2023-04-25T05:51:04;7.70;;;5.00;;
2462;SDS011;1243;54.298;10.172;2023-04-25T05:53:30;24.00;;;4.63;;
2462;SDS011;1243;54.298;10.172;2023-04-25T05:55:55;11.90;;;4.80;;
2462;SDS011;1243;54.298;10.172;2023-04-25T05:58:21;9.63;;;3.93;;
2462;SDS011;1243;54.298;10.172;2023-04-25T06:00:47;8.83;;;4.63;;
2462;SDS011;1243;54.298;10.172;2023-04-25T06:03:13;6.07;;;3.73;;
2462;SDS011;1243;54.298;10.172;2023-04-25T06:05:42;7.40;;;3.60;;
2462;SDS011;1243;54.298;10.172;2023-04-25T06:08:08;8.27;;;3.67;;
2462;SDS011;1243;54.298;10.172;2023-04-25T06:10:34;17.70;;;4.00;;
2462;SDS011;1243;54.298;10.172;2023-04-25T06:13:01;13.33;;;4.40;;
2462;SDS011;1243;54.298;10.172;2023-04-25T06:15:26;6.70;;;3.40;;
2462;SDS011;1243;54.298;10.172;2023-04-25T06:17:52;4.00;;;3.30;;
2462;SDS011;1243;54.298;10.172;2023-04-25T06:20:18;16.83;;;5.03;;
2462;SDS011;1243;54.298;10.172;2023-04-25T06:22:47;9.47;;;3.77;;
2462;SDS011;1243;54.298;10.172;2023-04-25T06:25:14;5.00;;;3.40;;
2462;SDS011;1243;54.298;10.172;2023-04-25T06:27:40;10.43;;;4.13;;
2462;SDS011;1243;54.298;10.172;2023-04-25T06:30:05;13.57;;;4.03;;
2462;SDS011;1243;54.298;10.172;2023-04-25T06:32:32;12.60;;;3.93;;
2462;SDS011;1243;54.298;10.172;2023-04-25T06:34:59;9.97;;;4.73;;
2462;SDS011;1243;54.298;10.172;2023-04-25T06:37:25;9.50;;;4.13;;
2462;SDS011;1243;54.298;10.172;2023-04-25T06:39:50;10.10;;;3.63;;
2462;SDS011;1243;54.298;10.172;2023-04-25T06:42:16;12.33;;;3.93;;
2462;SDS011;1243;54.298;10.172;2023-04-25T06:44:42;15.40;;;4.03;;
2462;SDS011;1243;54.298;10.172;2023-04-25T06:47:07;8.97;;;3.83;;
2462;SDS011;1243;54.298;10.172;2023-04-25T06:49:33;6.93;;;3.50;;
2462;SDS011;1243;54.298;10.172;2023-04-25T06:51:59;14.70;;;3.73;;
2462;SDS011;1243;54.298;10.172;2023-04-25T06:54:24;16.93;;;4.33;;
2462;SDS011;1243;54.298;10.172;2023-04-25T06:56:52;10.57;;;3.93;;
2462;SDS011;1243;54.298;10.172;2023-04-25T06:59:18;16.87;;;3.90;;
2462;SDS011;1243;54.298;10.172;2023-04-25T07:01:44;9.00;;;3.97;;
2462;SDS011;1243;54.298;10.172;2023-04-25T07:04:10;15.13;;;5.13;;
2462;SDS011;1243;54.298;10.172;2023-04-25T07:06:36;13.63;;;4.57;;
2462;SDS011;1243;54.298;10.172;2023-04-25T07:09:07;19.93;;;4.63;;
2462;SDS011;1243;54.298;10.172;2023-04-25T07:11:33;12.67;;;4.60;;
2462;SDS011;1243;54.298;10.172;2023-04-25T07:13:59;11.47;;;4.20;;
2462;SDS011;1243;54.298;10.172;2023-04-25T07:16:25;10.07;;;3.57;;
2462;SDS011;1243;54.298;10.172;2023-04-25T07:18:50;4.13;;;3.10;;
2462;SDS011;1243;54.298;10.172;2023-04-25T07:21:16;6.07;;;3.00;;
2462;SDS011;1243;54.298;10.172;2023-04-25T07:23:42;15.43;;;3.87;;
2462;SDS011;1243;54.298;10.172;2023-04-25T07:26:07;9.87;;;3.90;;
2462;SDS011;1243;54.298;10.172;2023-04-25T07:28:33;19.30;;;3.60;;
2462;SDS011;1243;54.298;10.172;2023-04-25T07:30:58;12.97;;;4.80;;
2462;SDS011;1243;54.298;10.172;2023-04-25T07:33:24;9.97;;;4.33;;
2462;SDS011;1243;54.298;10.172;2023-04-25T07:35:50;9.03;;;3.67;;
2462;SDS011;1243;54.298;10.172;2023-04-25T07:38:16;10.33;;;3.13;;
2462;SDS011;1243;54.298;10.172;2023-04-25T07:40:42;10.67;;;3.40;;
2462;SDS011;1243;54.298;10.172;2023-04-25T07:43:08;17.67;;;4.53;;
2462;SDS011;1243;54.298;10.172;2023-04-25T07:45:33;6.60;;;3.20;;
2462;SDS011;1243;54.298;10.172;2023-04-25T07:47:59;8.47;;;3.33;;
2462;SDS011;1243;54.298;10.172;2023-04-25T07:50:25;12.83;;;3.77;;
2462;SDS011;1243;54.298;10.172;2023-04-25T07:52:50;9.13;;;3.80;;
2462;SDS011;1243;54.298;10.172;2023-04-25T07:55:16;13.57;;;3.40;;
2462;SDS011;1243;54.298;10.172;2023-04-25T07:57:42;6.13;;;2.97;;
2462;SDS011;1243;54.298;10.172;2023-04-25T08:00:07;10.43;;;4.00;;
2462;SDS011;1243;54.298;10.172;2023-04-25T08:02:34;8.83;;;3.83;;
2462;SDS011;1243;54.298;10.172;2023-04-25T08:05:01;7.77;;;3.20;;
2462;SDS011;1243;54.298;10.172;2023-04-25T08:07:27;11.67;;;3.10;;
2462;SDS011;1243;54.298;10.172;2023-04-25T08:09:53;8.40;;;4.53;;
2462;SDS011;1243;54.298;10.172;2023-04-25T08:12:19;7.80;;;3.67;;
2462;SDS011;1243;54.298;10.172;2023-04-25T08:14:45;7.27;;;2.97;;
2462;SDS011;1243;54.298;10.172;2023-04-25T08:17:11;5.93;;;3.53;;
2462;SDS011;1243;54.298;10.172;2023-04-25T08:19:36;8.03;;;4.37;;
2462;SDS011;1243;54.298;10.172;2023-04-25T08:22:02;9.57;;;4.00;;
2462;SDS011;1243;54.298;10.172;2023-04-25T08:24:28;8.87;;;2.80;;
2462;SDS011;1243;54.298;10.172;2023-04-25T08:26:54;7.13;;;3.40;;
2462;SDS011;1243;54.298;10.172;2023-04-25T08:29:20;6.93;;;3.13;;
2462;SDS011;1243;54.298;10.172;2023-04-25T08:31:45;12.20;;;3.00;;
2462;SDS011;1243;54.298;10.172;2023-04-25T08:34:11;6.77;;;3.60;;
2462;SDS011;1243;54.298;10.172;2023-04-25T08:36:37;11.50;;;3.07;;
2462;SDS011;1243;54.298;10.172;2023-04-25T08:39:04;4.40;;;2.90;;
2462;SDS011;1243;54.298;10.172;2023-04-25T08:41:30;8.67;;;3.70;;
2462;SDS011;1243;54.298;10.172;2023-04-25T08:43:56;9.27;;;2.90;;
2462;SDS011;1243;54.298;10.172;2023-04-25T08:46:25;7.20;;;2.60;;
2462;SDS011;1243;54.298;10.172;2023-04-25T08:48:51;7.93;;;3.23;;
2462;SDS011;1243;54.298;10.172;2023-04-25T08:51:22;16.50;;;3.53;;
2462;SDS011;1243;54.298;10.172;2023-04-25T08:53:52;7.03;;;2.87;;
2462;SDS011;1243;54.298;10.172;2023-04-25T08:56:18;6.87;;;3.70;;
2462;SDS011;1243;54.298;10.172;2023-04-25T08:58:51;11.60;;;3.13;;
2462;SDS011;1243;54.298;10.172;2023-04-25T09:01:20;8.90;;;3.20;;
2462;SDS011;1243;54.298;10.172;2023-04-25T09:03:46;5.93;;;2.60;;
2462;SDS011;1243;54.298;10.172;2023-04-25T09:06:12;5.43;;;1.93;;
2462;SDS011;1243;54.298;10.172;2023-04-25T09:08:38;2.90;;;2.20;;
2462;SDS011;1243;54.298;10.172;2023-04-25T09:11:06;9.40;;;2.93;;
2462;SDS011;1243;54.298;10.172;2023-04-25T09:13:32;7.83;;;3.13;;
2462;SDS011;1243;54.298;10.172;2023-04-25T09:15:58;18.73;;;2.97;;
2462;SDS011;1243;54.298;10.172;2023-04-25T09:18:24;7.50;;;2.67;;
2462;SDS011;1243;54.298;10.172;2023-04-25T09:20:55;7.83;;;3.23;;
2462;SDS011;1243;54.298;10.172;2023-04-25T09:23:22;5.13;;;2.63;;
2462;SDS011;1243;54.298;10.172;2023-04-25T09:25:52;14.27;;;3.80;;
2462;SDS011;1243;54.298;10.172;2023-04-25T09:28:25;8.70;;;3.10;;
2462;SDS011;1243;54.298;10.172;2023-04-25T09:30:55;7.10;;;3.03;;
2462;SDS011;1243;54.298;10.172;2023-04-25T09:33:28;6.73;;;2.83;;
2462;SDS011;1243;54.298;10.172;2023-04-25T09:36:01;12.00;;;2.83;;
2462;SDS011;1243;54.298;10.172;2023-04-25T09:38:28;12.00;;;2.90;;
2462;SDS011;1243;54.298;10.172;2023-04-25T09:41:05;8.87;;;3.97;;
2462;SDS011;1243;54.298;10.172;2023-04-25T09:43:31;8.10;;;3.80;;
2462;SDS011;1243;54.298;10.172;2023-04-25T09:45:56;11.97;;;2.73;;
2462;SDS011;1243;54.298;10.172;2023-04-25T09:48:24;7.50;;;3.17;;
2462;SDS011;1243;54.298;10.172;2023-04-25T09:51:04;8.70;;;3.10;;
2462;SDS011;1243;54.298;10.172;2023-04-25T09:53:42;7.27;;;3.30;;
2462;SDS011;1243;54.298;10.172;2023-04-25T09:56:11;8.03;;;2.90;;
2462;SDS011;1243;54.298;10.172;2023-04-25T09:58:38;6.20;;;3.43;;
2462;SDS011;1243;54.298;10.172;2023-04-25T10:01:05;3.60;;;2.30;;
2462;SDS011;1243;54.298;10.172;2023-04-25T10:03:36;4.30;;;2.70;;
2462;SDS011;1243;54.298;10.172;2023-04-25T10:06:07;12.10;;;3.50;;
2462;SDS011;1243;54.298;10.172;2023-04-25T10:08:44;6.37;;;2.57;;
2462;SDS011;1243;54.298;10.172;2023-04-25T10:11:10;11.80;;;2.57;;
2462;SDS011;1243;54.298;10.172;2023-04-25T10:13:39;13.13;;;2.70;;
2462;SDS011;1243;54.298;10.172;2023-04-25T10:16:06;4.93;;;2.77;;
2462;SDS011;1243;54.298;10.172;2023-04-25T10:18:32;7.77;;;3.03;;
2462;SDS011;1243;54.298;10.172;2023-04-25T10:20:59;8.13;;;2.70;;
2462;SDS011;1243;54.298;10.172;2023-04-25T10:23:30;9.00;;;3.40;;
2462;SDS011;1243;54.298;10.172;2023-04-25T10:25:57;5.83;;;2.33;;
2462;SDS011;1243;54.298;10.172;2023-04-25T10:28:23;4.50;;;2.30;;
2462;SDS011;1243;54.298;10.172;2023-04-25T10:31:06;4.57;;;2.50;;
2462;SDS011;1243;54.298;10.172;2023-04-25T10:33:36;4.47;;;2.17;;
2462;SDS011;1243;54.298;10.172;2023-04-25T10:36:14;5.20;;;2.73;;
2462;SDS011;1243;54.298;10.172;2023-04-25T10:38:43;8.57;;;2.30;;
2462;SDS011;1243;54.298;10.172;2023-04-25T10:41:10;6.07;;;2.50;;
2462;SDS011;1243;54.298;10.172;2023-04-25T10:43:38;5.47;;;2.10;;
2462;SDS011;1243;54.298;10.172;2023-04-25T10:48:57;2.67;;;2.00;;
2462;SDS011;1243;54.298;10.172;2023-04-25T10:54:06;5.50;;;2.70;;
2462;SDS011;1243;54.298;10.172;2023-04-25T10:56:36;9.47;;;3.40;;
2462;SDS011;1243;54.298;10.172;2023-04-25T10:59:06;4.77;;;2.30;;
2462;SDS011;1243;54.298;10.172;2023-04-25T11:01:44;6.20;;;2.80;;
2462;SDS011;1243;54.298;10.172;2023-04-25T11:04:21;2.33;;;1.63;;
2462;SDS011;1243;54.298;10.172;2023-04-25T11:09:39;5.43;;;1.60;;
2462;SDS011;1243;54.298;10.172;2023-04-25T11:12:07;4.77;;;1.67;;
2462;SDS011;1243;54.298;10.172;2023-04-25T11:14:34;2.77;;;1.93;;
2462;SDS011;1243;54.298;10.172;2023-04-25T11:17:00;3.77;;;1.93;;
2462;SDS011;1243;54.298;10.172;2023-04-25T11:19:27;4.10;;;1.60;;
2462;SDS011;1243;54.298;10.172;2023-04-25T11:21:57;4.30;;;2.10;;
2462;SDS011;1243;54.298;10.172;2023-04-25T11:24:29;3.97;;;1.70;;
2462;SDS011;1243;54.298;10.172;2023-04-25T11:26:56;3.30;;;1.70;;
2462;SDS011;1243;54.298;10.172;2023-04-25T11:29:29;3.20;;;1.70;;
2462;SDS011;1243;54.298;10.172;2023-04-25T11:31:56;3.30;;;1.70;;
2462;SDS011;1243;54.298;10.172;2023-04-25T11:34:23;2.50;;;1.83;;
2462;SDS011;1243;54.298;10.172;2023-04-25T11:36:50;4.47;;;2.10;;
2462;SDS011;1243;54.298;10.172;2023-04-25T11:39:19;2.17;;;1.77;;
2462;SDS011;1243;54.298;10.172;2023-04-25T11:41:46;5.33;;;2.20;;
2462;SDS011;1243;54.298;10.172;2023-04-25T11:44:13;6.87;;;1.63;;
2462;SDS011;1243;54.298;10.172;2023-04-25T11:46:41;6.93;;;2.23;;
2462;SDS011;1243;54.298;10.172;2023-04-25T11:49:07;5.57;;;2.07;;
2462;SDS011;1243;54.298;10.172;2023-04-25T11:51:43;4.23;;;1.60;;
2462;SDS011;1243;54.298;10.172;2023-04-25T11:54:11;7.53;;;2.23;;
2462;SDS011;1243;54.298;10.172;2023-04-25T11:56:37;5.43;;;1.90;;
2462;SDS011;1243;54.298;10.172;2023-04-25T11:59:08;2.60;;;1.63;;
2462;SDS011;1243;54.298;10.172;2023-04-25T12:01:35;2.90;;;1.40;;
2462;SDS011;1243;54.298;10.172;2023-04-25T12:04:18;5.60;;;2.30;;
2462;SDS011;1243;54.298;10.172;2023-04-25T12:06:50;7.23;;;2.40;;
2462;SDS011;1243;54.298;10.172;2023-04-25T12:09:18;4.73;;;2.50;;
2462;SDS011;1243;54.298;10.172;2023-04-25T12:11:52;4.60;;;2.10;;
2462;SDS011;1243;54.298;10.172;2023-04-25T12:14:22;2.90;;;1.70;;
2462;SDS011;1243;54.298;10.172;2023-04-25T12:16:54;4.93;;;2.27;;
2462;SDS011;1243;54.298;10.172;2023-04-25T12:19:22;13.97;;;2.50;;
2462;SDS011;1243;54.298;10.172;2023-04-25T12:21:48;3.53;;;1.90;;
2462;SDS011;1243;54.298;10.172;2023-04-25T12:24:15;9.23;;;2.20;;
2462;SDS011;1243;54.298;10.172;2023-04-25T12:29:33;8.97;;;2.63;;
2462;SDS011;1243;54.298;10.172;2023-04-25T12:31:59;7.33;;;2.60;;
2462;SDS011;1243;54.298;10.172;2023-04-25T12:34:26;5.40;;;2.60;;
2462;SDS011;1243;54.298;10.172;2023-04-25T12:36:52;3.07;;;1.97;;
2462;SDS011;1243;54.298;10.172;2023-04-25T12:39:20;11.77;;;2.67;;
2462;SDS011;1243;54.298;10.172;2023-04-25T12:41:48;8.30;;;2.87;;
2462;SDS011;1243;54.298;10.172;2023-04-25T12:44:15;9.53;;;2.60;;
2462;SDS011;1243;54.298;10.172;2023-04-25T12:46:41;2.20;;;2.00;;
2462;SDS011;1243;54.298;10.172;2023-04-25T12:49:07;7.47;;;2.70;;
2462;SDS011;1243;54.298;10.172;2023-04-25T12:51:36;10.07;;;2.50;;
2462;SDS011;1243;54.298;10.172;2023-04-25T12:54:03;7.90;;;2.73;;
2462;SDS011;1243;54.298;10.172;2023-04-25T12:56:30;4.00;;;2.60;;
2462;SDS011;1243;54.298;10.172;2023-04-25T12:58:56;8.17;;;2.57;;
2462;SDS011;1243;54.298;10.172;2023-04-25T13:01:22;6.33;;;2.53;;
2462;SDS011;1243;54.298;10.172;2023-04-25T13:03:49;7.37;;;2.60;;
2462;SDS011;1243;54.298;10.172;2023-04-25T13:06:15;5.53;;;2.23;;
2462;SDS011;1243;54.298;10.172;2023-04-25T13:08:41;10.30;;;2.63;;
2462;SDS011;1243;54.298;10.172;2023-04-25T13:11:07;8.80;;;2.73;;
2462;SDS011;1243;54.298;10.172;2023-04-25T13:13:33;6.10;;;2.90;;
2462;SDS011;1243;54.298;10.172;2023-04-25T13:16:02;5.50;;;1.87;;
2462;SDS011;1243;54.298;10.172;2023-04-25T13:18:29;4.20;;;2.70;;
2462;SDS011;1243;54.298;10.172;2023-04-25T13:20:58;7.43;;;2.20;;
2462;SDS011;1243;54.298;10.172;2023-04-25T13:23:27;7.13;;;2.67;;
2462;SDS011;1243;54.298;10.172;2023-04-25T13:25:54;7.33;;;1.93;;
2462;SDS011;1243;54.298;10.172;2023-04-25T13:28:22;7.50;;;2.00;;
2462;SDS011;1243;54.298;10.172;2023-04-25T13:30:51;5.83;;;2.17;;
2462;SDS011;1243;54.298;10.172;2023-04-25T13:33:17;3.10;;;2.30;;
2462;SDS011;1243;54.298;10.172;2023-04-25T13:35:43;5.27;;;2.07;;
2462;SDS011;1243;54.298;10.172;2023-04-25T13:38:19;4.30;;;2.40;;
2462;SDS011;1243;54.298;10.172;2023-04-25T13:40:50;4.20;;;2.90;;
2462;SDS011;1243;54.298;10.172;2023-04-25T13:43:17;7.30;;;2.20;;
2462;SDS011;1243;54.298;10.172;2023-04-25T13:45:44;7.67;;;2.40;;
2462;SDS011;1243;54.298;10.172;2023-04-25T13:48:09;4.50;;;2.23;;
2462;SDS011;1243;54.298;10.172;2023-04-25T13:50:35;5.33;;;1.97;;
2462;SDS011;1243;54.298;10.172;2023-04-25T13:53:01;4.60;;;2.23;;
2462;SDS011;1243;54.298;10.172;2023-04-25T13:55:26;2.40;;;2.00;;
2462;SDS011;1243;54.298;10.172;2023-04-25T13:57:52;5.50;;;2.60;;
2462;SDS011;1243;54.298;10.172;2023-04-25T14:00:18;3.43;;;1.97;;
2462;SDS011;1243;54.298;10.172;2023-04-25T14:02:45;4.50;;;2.10;;
2462;SDS011;1243;54.298;10.172;2023-04-25T14:05:10;7.03;;;2.10;;
2462;SDS011;1243;54.298;10.172;2023-04-25T14:07:36;3.37;;;2.40;;
2462;SDS011;1243;54.298;10.172;2023-04-25T14:10:02;12.00;;;3.43;;
2462;SDS011;1243;54.298;10.172;2023-04-25T14:12:30;7.03;;;2.73;;
2462;SDS011;1243;54.298;10.172;2023-04-25T14:14:56;4.73;;;3.03;;
2462;SDS011;1243;54.298;10.172;2023-04-25T14:17:22;6.57;;;2.30;;
2462;SDS011;1243;54.298;10.172;2023-04-25T14:19:49;3.87;;;2.20;;
2462;SDS011;1243;54.298;10.172;2023-04-25T14:22:15;3.40;;;2.60;;
2462;SDS011;1243;54.298;10.172;2023-04-25T14:24:41;9.73;;;2.50;;
2462;SDS011;1243;54.298;10.172;2023-04-25T14:27:06;10.13;;;3.10;;
2462;SDS011;1243;54.298;10.172;2023-04-25T14:29:32;8.50;;;2.00;;
2462;SDS011;1243;54.298;10.172;2023-04-25T14:31:58;7.50;;;2.87;;
2462;SDS011;1243;54.298;10.172;2023-04-25T14:34:24;17.47;;;2.87;;
2462;SDS011;1243;54.298;10.172;2023-04-25T14:36:51;3.30;;;3.00;;
2462;SDS011;1243;54.298;10.172;2023-04-25T14:39:17;7.70;;;2.73;;
2462;SDS011;1243;54.298;10.172;2023-04-25T14:41:43;15.10;;;2.60;;
2462;SDS011;1243;54.298;10.172;2023-04-25T14:44:09;7.13;;;2.50;;
2462;SDS011;1243;54.298;10.172;2023-04-25T14:46:35;2.97;;;2.30;;
2462;SDS011;1243;54.298;10.172;2023-04-25T14:49:01;4.00;;;3.13;;
2462;SDS011;1243;54.298;10.172;2023-04-25T14:51:29;9.67;;;2.37;;
2462;SDS011;1243;54.298;10.172;2023-04-25T14:53:56;8.83;;;2.73;;
2462;SDS011;1243;54.298;10.172;2023-04-25T14:56:22;5.50;;;2.80;;
2462;SDS011;1243;54.298;10.172;2023-04-25T14:58:47;3.97;;;2.40;;
2462;SDS011;1243;54.298;10.172;2023-04-25T15:01:13;7.73;;;2.33;;
2462;SDS011;1243;54.298;10.172;2023-04-25T15:03:40;6.30;;;2.53;;
2462;SDS011;1243;54.298;10.172;2023-04-25T15:06:06;10.13;;;2.80;;
2462;SDS011;1243;54.298;10.172;2023-04-25T15:08:31;8.27;;;2.83;;
2462;SDS011;1243;54.298;10.172;2023-04-25T15:11:00;4.40;;;2.70;;
2462;SDS011;1243;54.298;10.172;2023-04-25T15:13:27;7.70;;;2.07;;
2462;SDS011;1243;54.298;10.172;2023-04-25T15:15:52;8.13;;;2.63;;
2462;SDS011;1243;54.298;10.172;2023-04-25T15:18:22;9.07;;;3.10;;
2462;SDS011;1243;54.298;10.172;2023-04-25T15:20:49;6.03;;;2.30;;
2462;SDS011;1243;54.298;10.172;2023-04-25T15:23:16;20.70;;;2.90;;
2462;SDS011;1243;54.298;10.172;2023-04-25T15:25:42;6.23;;;2.60;;
2462;SDS011;1243;54.298;10.172;2023-04-25T15:28:08;6.80;;;2.97;;
2462;SDS011;1243;54.298;10.172;2023-04-25T15:30:34;4.30;;;2.30;;
2462;SDS011;1243;54.298;10.172;2023-04-25T15:33:00;3.50;;;2.90;;
2462;SDS011;1243;54.298;10.172;2023-04-25T15:35:26;6.90;;;3.20;;
2462;SDS011;1243;54.298;10.172;2023-04-25T15:37:51;9.30;;;2.93;;